createdAt,value
2023-02-12T00:01:41.557Z,22.13
2023-02-12T00:05:44.619Z,22.80
2023-02-12T00:09:50.338Z,24.40
2023-02-12T00:13:58.374Z,24.03
2023-02-12T00:18:01.787Z,25.67
2023-02-12T00:22:05.111Z,24.17
2023-02-12T00:26:11.560Z,24.00
2023-02-12T00:30:15.018Z,24.07
2023-02-12T00:34:21.191Z,24.20
2023-02-12T00:38:24.371Z,26.07
2023-02-12T00:42:29.294Z,25.43
2023-02-12T00:46:32.389Z,26.27
2023-02-12T00:50:35.477Z,24.93
2023-02-12T00:54:38.549Z,26.60
2023-02-12T00:58:43.099Z,25.73
2023-02-12T01:02:48.825Z,25.17
2023-02-12T01:06:51.890Z,26.90
2023-02-12T01:11:03.114Z,25.13
2023-02-12T01:15:10.588Z,25.27
2023-02-12T01:19:16.436Z,26.30
2023-02-12T01:23:22.142Z,27.07
2023-02-12T01:27:25.361Z,26.20
2023-02-12T01:31:34.106Z,25.97
2023-02-12T01:35:39.483Z,25.97
2023-02-12T01:39:45.652Z,25.67
2023-02-12T01:44:12.118Z,26.87
2023-02-12T01:48:19.212Z,25.47
2023-02-12T01:52:27.508Z,25.53
2023-02-12T01:56:31.320Z,25.43
2023-02-12T02:00:37.184Z,25.70
2023-02-12T02:04:49.826Z,27.50
2023-02-12T02:08:55.907Z,27.00
2023-02-12T02:13:17.652Z,26.07
2023-02-12T02:17:48.510Z,26.10
2023-02-12T02:22:27.152Z,25.83
2023-02-12T02:27:02.549Z,24.80
2023-02-12T02:31:16.223Z,26.77
2023-02-12T02:35:29.652Z,27.27
2023-02-12T02:39:39.392Z,27.30
2023-02-12T02:43:47.740Z,28.10
2023-02-12T02:47:59.677Z,27.73
2023-02-12T02:52:13.577Z,28.87
2023-02-12T02:56:20.482Z,29.00
2023-02-12T03:00:27.485Z,28.57
2023-02-12T03:04:40.841Z,26.83
2023-02-12T03:08:50.156Z,28.43
2023-02-12T03:12:56.756Z,29.43
2023-02-12T03:17:04.974Z,28.23
2023-02-12T03:21:14.333Z,29.50
2023-02-12T03:25:23.628Z,29.93
2023-02-12T03:29:29.930Z,32.83
2023-02-12T03:33:43.045Z,31.93
2023-02-12T03:37:58.072Z,32.33
2023-02-12T03:42:08.688Z,30.90
2023-02-12T03:46:21.120Z,30.47
2023-02-12T03:50:33.938Z,31.80
2023-02-12T03:54:38.413Z,31.17
2023-02-12T03:58:45.440Z,32.73
2023-02-12T04:02:49.149Z,31.03
2023-02-12T04:06:56.941Z,30.70
2023-02-12T04:11:17.400Z,29.27
2023-02-12T04:15:45.275Z,31.13
2023-02-12T04:20:04.231Z,29.43
2023-02-12T04:24:22.509Z,30.77
2023-02-12T04:28:36.381Z,32.00
2023-02-12T04:32:45.361Z,32.17
2023-02-12T04:36:55.750Z,31.03
2023-02-12T04:41:00.197Z,31.20
2023-02-12T04:45:07.227Z,32.57
2023-02-12T04:49:15.734Z,33.97
2023-02-12T04:53:19.144Z,34.73
2023-02-12T04:57:23.448Z,32.10
2023-02-12T05:01:30.981Z,29.60
2023-02-12T05:05:35.711Z,34.23
2023-02-12T05:09:39.132Z,33.30
2023-02-12T05:13:44.520Z,32.60
2023-02-12T05:17:49.061Z,32.57
2023-02-12T05:21:52.902Z,32.47
2023-02-12T05:25:58.874Z,29.70
2023-02-12T05:30:02.645Z,31.83
2023-02-12T05:34:10.296Z,30.87
2023-02-12T05:38:14.958Z,32.10
2023-02-12T05:42:18.024Z,33.23
2023-02-12T05:46:22.907Z,33.67
2023-02-12T05:50:32.314Z,34.03
2023-02-12T05:54:35.736Z,34.60
2023-02-12T05:58:39.122Z,32.47
2023-02-12T06:02:42.198Z,30.60
2023-02-12T06:06:46.805Z,30.43
2023-02-12T06:10:52.064Z,34.97
2023-02-12T06:14:58.415Z,34.67
2023-02-12T06:19:03.729Z,32.77
2023-02-12T06:23:10.489Z,32.73
2023-02-12T06:27:13.669Z,33.63
2023-02-12T06:31:22.712Z,33.73
2023-02-12T06:35:25.928Z,33.73
2023-02-12T06:39:32.636Z,29.50
2023-02-12T06:43:38.220Z,32.23
2023-02-12T06:47:41.295Z,31.93
2023-02-12T06:51:47.315Z,32.93
2023-02-12T06:55:54.272Z,32.10
2023-02-12T06:59:57.736Z,33.23
2023-02-12T07:04:06.978Z,33.37
2023-02-12T07:08:10.338Z,29.67
2023-02-12T07:12:16.852Z,33.67
2023-02-12T07:16:20.347Z,30.67
2023-02-12T07:20:23.584Z,30.20
2023-02-12T07:24:28.323Z,30.90
2023-02-12T07:28:33.896Z,30.00
2023-02-12T07:32:38.053Z,29.30
2023-02-12T07:36:42.227Z,30.70
2023-02-12T07:40:50.139Z,29.90
2023-02-12T07:44:56.797Z,31.10
2023-02-12T07:49:04.405Z,28.80
2023-02-12T07:53:10.216Z,28.93
2023-02-12T07:57:17.101Z,30.60
2023-02-12T08:01:28.450Z,29.67
2023-02-12T08:05:31.609Z,30.40
2023-02-12T08:09:39.807Z,29.10
2023-02-12T08:13:46.316Z,29.47
2023-02-12T08:17:51.292Z,27.07
2023-02-12T08:21:58.502Z,28.57
2023-02-12T08:26:10.586Z,28.70
2023-02-12T08:30:15.662Z,25.93
2023-02-12T08:34:25.400Z,24.73
2023-02-12T08:38:28.500Z,24.57
2023-02-12T08:42:31.705Z,24.40
2023-02-12T08:46:37.474Z,24.97
2023-02-12T08:50:44.075Z,24.77
2023-02-12T08:54:47.228Z,21.83
2023-02-12T08:58:53.172Z,20.93
2023-02-12T09:02:56.207Z,21.03
2023-02-12T09:07:00.932Z,19.57
2023-02-12T09:11:09.116Z,19.37
2023-02-12T09:15:12.436Z,18.80
2023-02-12T09:19:16.395Z,20.23
2023-02-12T09:23:21.956Z,20.67
2023-02-12T09:27:25.040Z,18.10
2023-02-12T09:31:32.518Z,17.80
2023-02-12T09:35:41.315Z,18.17
2023-02-12T09:39:46.075Z,17.40
2023-02-12T09:43:58.975Z,16.55
2023-02-12T09:48:09.086Z,13.77
2023-02-12T09:52:17.565Z,13.07
2023-02-12T09:56:25.970Z,13.37
2023-02-12T10:00:32.678Z,15.10
2023-02-12T10:04:46.140Z,12.73
2023-02-12T10:09:25.718Z,11.73
2023-02-12T10:13:43.203Z,11.45
2023-02-12T10:17:54.150Z,12.30
2023-02-12T10:22:08.691Z,8.47
2023-02-12T10:26:25.747Z,9.18
2023-02-12T10:30:42.315Z,9.47
2023-02-12T10:34:47.951Z,9.80
2023-02-12T10:38:58.801Z,8.13
2023-02-12T10:43:03.649Z,9.23
2023-02-12T10:47:08.748Z,8.55
2023-02-12T10:51:39.208Z,9.40
2023-02-12T10:55:44.313Z,9.65
2023-02-12T10:59:48.609Z,8.88
2023-02-12T11:03:53.601Z,9.60
2023-02-12T11:08:05.093Z,10.35
2023-02-12T11:12:28.413Z,9.77
2023-02-12T11:16:35.284Z,9.00
2023-02-12T11:20:43.634Z,7.10
2023-02-12T11:24:48.151Z,9.13
2023-02-12T11:28:59.972Z,7.78
2023-02-12T11:33:17.906Z,7.78
2023-02-12T11:37:22.439Z,6.93
2023-02-12T11:41:34.716Z,7.95
2023-02-12T11:45:46.547Z,8.25
2023-02-12T11:49:54.513Z,8.57
2023-02-12T11:54:04.493Z,9.32
2023-02-12T11:58:17.376Z,8.15
2023-02-12T12:02:28.026Z,8.35
2023-02-12T12:06:36.921Z,4.97
2023-02-12T12:10:45.798Z,3.15
2023-02-12T12:15:12.804Z,3.53
2023-02-12T12:19:38.539Z,3.55
2023-02-12T12:23:49.941Z,4.43
2023-02-12T12:28:08.599Z,3.35
2023-02-12T12:32:20.417Z,3.10
2023-02-12T12:37:02.509Z,3.45
2023-02-12T12:41:16.682Z,3.33
2023-02-12T12:45:36.212Z,3.17
2023-02-12T12:49:53.622Z,4.32
2023-02-12T12:54:06.704Z,3.40
2023-02-12T12:58:21.168Z,2.97
2023-02-12T13:02:53.996Z,3.30
2023-02-12T13:07:12.000Z,3.03
2023-02-12T13:11:32.558Z,3.60
2023-02-12T13:15:44.344Z,5.10
2023-02-12T13:19:57.812Z,4.30
2023-02-12T13:24:08.230Z,4.22
2023-02-12T13:28:16.796Z,4.82
2023-02-12T13:32:28.511Z,5.00
2023-02-12T13:36:34.718Z,4.82
2023-02-12T13:40:38.217Z,4.78
2023-02-12T13:44:50.538Z,4.70
2023-02-12T13:49:01.929Z,4.10
2023-02-12T13:53:16.843Z,4.55
2023-02-12T13:57:22.581Z,4.78
2023-02-12T14:01:41.850Z,4.13
2023-02-12T14:05:46.851Z,4.32
2023-02-12T14:10:04.286Z,4.53
2023-02-12T14:14:07.781Z,5.45
2023-02-12T14:18:32.214Z,6.53
2023-02-12T14:23:11.839Z,5.10
2023-02-12T14:27:29.198Z,6.70
2023-02-12T14:31:38.389Z,6.28
2023-02-12T14:35:45.651Z,6.32
2023-02-12T14:39:48.824Z,6.68
2023-02-12T14:44:04.627Z,7.13
2023-02-12T14:48:12.139Z,6.70
2023-02-12T14:52:19.705Z,7.15
2023-02-12T14:56:24.728Z,6.55
2023-02-12T15:00:33.804Z,7.47
2023-02-12T15:04:41.725Z,7.13
2023-02-12T15:08:54.492Z,6.75
2023-02-12T15:13:09.433Z,6.88
2023-02-12T15:17:17.816Z,6.80
2023-02-12T15:21:24.022Z,6.03
2023-02-12T15:25:28.994Z,5.95
2023-02-12T15:29:37.603Z,6.35
2023-02-12T15:33:50.999Z,7.25
2023-02-12T15:37:55.299Z,6.65
2023-02-12T15:42:02.364Z,6.90
2023-02-12T15:46:09.043Z,7.35
2023-02-12T15:50:17.757Z,7.13
2023-02-12T15:54:21.922Z,7.38
2023-02-12T15:58:27.037Z,21.08
2023-02-12T16:02:33.052Z,12.05
2023-02-12T16:06:38.002Z,7.80
2023-02-12T16:10:45.265Z,10.85
2023-02-12T16:14:54.288Z,7.10
2023-02-12T16:19:09.779Z,6.40
2023-02-12T16:23:15.255Z,10.25
2023-02-12T16:27:24.026Z,7.00
2023-02-12T16:31:29.175Z,7.93
2023-02-12T16:35:38.890Z,8.47
2023-02-12T16:40:22.285Z,8.57
2023-02-12T16:44:31.633Z,8.67
2023-02-12T16:48:40.517Z,8.77
2023-02-12T16:52:46.309Z,9.23
2023-02-12T16:56:52.420Z,9.40
2023-02-12T17:01:02.694Z,9.40
2023-02-12T17:05:07.388Z,11.50
2023-02-12T17:09:14.071Z,10.67
2023-02-12T17:13:20.899Z,9.93
2023-02-12T17:17:24.018Z,10.87
2023-02-12T17:21:29.467Z,11.93
2023-02-12T17:25:34.035Z,11.40
2023-02-12T17:29:38.657Z,12.50
2023-02-12T17:33:41.838Z,12.07
2023-02-12T17:37:48.057Z,12.23
2023-02-12T17:41:54.328Z,12.87
2023-02-12T17:46:01.372Z,12.43
2023-02-12T17:50:08.152Z,12.93
2023-02-12T17:54:11.488Z,11.63
2023-02-12T17:58:14.763Z,9.50
2023-02-12T18:02:19.578Z,10.03
2023-02-12T18:06:24.990Z,10.10
2023-02-12T18:10:28.048Z,9.77
2023-02-12T18:14:31.160Z,10.20
2023-02-12T18:18:40.341Z,10.67
2023-02-12T18:22:48.407Z,10.87
2023-02-12T18:26:54.690Z,10.77
2023-02-12T18:30:59.702Z,11.30
2023-02-12T18:35:25.184Z,11.20
2023-02-12T18:39:33.976Z,10.63
2023-02-12T18:43:37.348Z,11.70
2023-02-12T18:47:40.511Z,12.03
2023-02-12T18:51:48.781Z,13.23
2023-02-12T18:55:57.211Z,10.73
2023-02-12T19:00:00.354Z,10.97
2023-02-12T19:04:06.121Z,11.33
2023-02-12T19:08:10.700Z,12.10
2023-02-12T19:12:18.467Z,17.20
2023-02-12T19:16:23.630Z,14.10
2023-02-12T19:20:27.090Z,12.67
2023-02-12T19:24:45.605Z,13.00
2023-02-12T19:28:49.774Z,15.30
2023-02-12T19:32:54.793Z,19.03
2023-02-12T19:37:01.023Z,17.33
2023-02-12T19:41:07.290Z,17.67
2023-02-12T19:45:11.203Z,20.30
2023-02-12T19:49:16.932Z,21.97
2023-02-12T19:53:20.177Z,21.60
2023-02-12T19:57:24.694Z,21.80
2023-02-12T20:01:28.421Z,20.97
2023-02-12T20:05:31.765Z,23.60
2023-02-12T20:09:37.149Z,31.13
2023-02-12T20:13:41.841Z,32.30
2023-02-12T20:17:45.317Z,18.17
2023-02-12T20:21:54.217Z,17.17
2023-02-12T20:25:57.299Z,17.90
2023-02-12T20:30:02.938Z,18.43
2023-02-12T20:34:08.043Z,19.13
2023-02-12T20:38:15.669Z,19.77
2023-02-12T20:42:19.965Z,17.03
2023-02-12T20:46:25.739Z,18.73
2023-02-12T20:50:31.285Z,16.37
2023-02-12T20:54:34.600Z,19.13
2023-02-12T20:58:41.201Z,18.77
2023-02-12T21:02:47.020Z,19.37
2023-02-12T21:06:50.172Z,18.70
2023-02-12T21:11:02.558Z,21.17
2023-02-12T21:15:06.078Z,19.73
2023-02-12T21:19:10.782Z,21.53
2023-02-12T21:23:14.212Z,20.00
2023-02-12T21:27:17.212Z,18.97
2023-02-12T21:31:24.445Z,19.53
2023-02-12T21:35:29.343Z,22.23
2023-02-12T21:39:32.440Z,20.57
2023-02-12T21:43:41.890Z,22.43
2023-02-12T21:47:48.227Z,23.43
2023-02-12T21:51:55.201Z,22.33
2023-02-12T21:56:03.089Z,23.13
2023-02-12T22:00:07.705Z,24.63
2023-02-12T22:04:11.525Z,19.20
2023-02-12T22:08:22.407Z,18.10
2023-02-12T22:12:27.506Z,18.50
2023-02-12T22:16:33.601Z,17.90
2023-02-12T22:20:38.727Z,17.73
2023-02-12T22:24:45.081Z,19.33
2023-02-12T22:28:50.493Z,21.63
2023-02-12T22:32:57.740Z,19.03
2023-02-12T22:37:01.281Z,20.40
2023-02-12T22:41:10.963Z,22.93
2023-02-12T22:45:17.317Z,24.43
2023-02-12T22:49:20.613Z,24.07
2023-02-12T22:53:26.800Z,24.33
2023-02-12T22:57:31.248Z,44.60
2023-02-12T23:01:34.558Z,32.67
2023-02-12T23:05:38.577Z,31.37
2023-02-12T23:09:45.928Z,48.10
2023-02-12T23:13:52.738Z,31.67
2023-02-12T23:17:55.789Z,44.77
2023-02-12T23:21:58.924Z,48.53
2023-02-12T23:26:03.424Z,43.00
2023-02-12T23:30:09.464Z,48.07
2023-02-12T23:34:17.859Z,51.10
2023-02-12T23:38:20.929Z,46.63
2023-02-12T23:42:31.330Z,48.73
2023-02-12T23:46:37.575Z,27.93
2023-02-12T23:50:43.582Z,46.10
2023-02-12T23:54:46.618Z,45.97
2023-02-12T23:58:50.909Z,42.40
